createdAt,value
2022-11-05T00:01:29.772Z,10.75
2022-11-05T00:05:08.491Z,10.02
2022-11-05T00:08:48.765Z,10.52
2022-11-05T00:12:30.816Z,10.10
2022-11-05T00:16:10.372Z,10.02
2022-11-05T00:19:31.801Z,10.75
2022-11-05T00:23:18.681Z,9.85
2022-11-05T00:26:41.507Z,9.55
2022-11-05T00:30:02.773Z,10.88
2022-11-05T00:33:24.521Z,9.80
2022-11-05T00:36:46.204Z,9.35
2022-11-05T00:40:08.791Z,9.40
2022-11-05T00:43:54.117Z,9.60
2022-11-05T00:47:33.161Z,8.65
2022-11-05T00:50:55.074Z,7.45
2022-11-05T00:54:16.660Z,8.27
2022-11-05T00:57:38.417Z,7.20
2022-11-05T01:01:02.154Z,7.13
2022-11-05T01:04:23.693Z,6.87
2022-11-05T01:07:44.955Z,7.37
2022-11-05T01:11:11.441Z,7.37
2022-11-05T01:14:32.906Z,7.07
2022-11-05T01:17:55.933Z,6.85
2022-11-05T01:21:17.684Z,6.43
2022-11-05T01:24:38.883Z,7.07
2022-11-05T01:28:00.313Z,7.55
2022-11-05T01:31:21.972Z,6.47
2022-11-05T01:34:45.189Z,7.30
2022-11-05T01:38:06.553Z,6.68
2022-11-05T01:41:27.910Z,7.07
2022-11-05T01:45:14.389Z,7.03
2022-11-05T01:48:37.573Z,7.13
2022-11-05T01:52:04.493Z,7.32
2022-11-05T01:55:30.026Z,7.20
2022-11-05T01:58:55.812Z,7.22
2022-11-05T02:02:19.231Z,6.95
2022-11-05T02:05:41.920Z,6.20
2022-11-05T02:09:09.465Z,8.07
2022-11-05T02:12:31.463Z,7.38
2022-11-05T02:16:00.314Z,7.13
2022-11-05T02:19:58.276Z,6.20
2022-11-05T02:23:54.675Z,6.07
2022-11-05T02:27:39.494Z,6.65
2022-11-05T02:31:05.222Z,6.75
2022-11-05T02:34:36.619Z,6.03
2022-11-05T02:38:05.838Z,5.85
2022-11-05T02:41:35.069Z,6.07
2022-11-05T02:45:06.969Z,5.75
2022-11-05T02:48:37.341Z,5.60
2022-11-05T02:51:59.860Z,5.80
2022-11-05T02:55:28.377Z,5.50
2022-11-05T02:58:49.951Z,5.33
2022-11-05T03:02:12.010Z,5.50
2022-11-05T03:05:44.616Z,6.43
2022-11-05T03:09:42.993Z,4.82
2022-11-05T03:13:15.196Z,5.10
2022-11-05T03:16:41.394Z,4.53
2022-11-05T03:20:11.300Z,4.68
2022-11-05T03:23:42.992Z,4.67
2022-11-05T03:27:09.935Z,4.30
2022-11-05T03:30:33.810Z,4.63
2022-11-05T03:33:56.818Z,4.60
2022-11-05T03:37:21.195Z,4.37
2022-11-05T03:40:48.582Z,5.57
2022-11-05T03:44:13.839Z,3.90
2022-11-05T03:47:40.571Z,4.60
2022-11-05T03:51:07.671Z,3.83
2022-11-05T03:54:29.529Z,3.90
2022-11-05T03:57:56.749Z,3.95
2022-11-05T04:01:18.163Z,4.00
2022-11-05T04:04:40.276Z,3.30
2022-11-05T04:08:18.980Z,3.50
2022-11-05T04:11:57.869Z,3.30
2022-11-05T04:15:20.806Z,3.50
2022-11-05T04:18:41.477Z,3.37
2022-11-05T04:22:20.313Z,3.37
2022-11-05T04:25:41.629Z,3.30
2022-11-05T04:29:20.607Z,3.97
2022-11-05T04:32:43.480Z,2.97
2022-11-05T04:36:04.945Z,3.33
2022-11-05T04:39:26.317Z,2.93
2022-11-05T04:42:47.906Z,3.57
2022-11-05T04:46:09.239Z,3.17
2022-11-05T04:49:31.959Z,3.13
2022-11-05T04:52:53.605Z,3.30
2022-11-05T04:56:19.813Z,3.13
2022-11-05T04:59:41.788Z,3.73
2022-11-05T05:03:03.272Z,3.30
2022-11-05T05:06:25.936Z,3.23
2022-11-05T05:09:47.333Z,3.43
2022-11-05T05:13:10.839Z,3.20
2022-11-05T05:16:32.402Z,3.37
2022-11-05T05:20:11.532Z,3.60
2022-11-05T05:23:34.500Z,2.97
2022-11-05T05:26:56.541Z,3.30
2022-11-05T05:30:18.081Z,3.97
2022-11-05T05:33:39.468Z,3.13
2022-11-05T05:37:03.128Z,3.20
2022-11-05T05:40:26.242Z,3.47
2022-11-05T05:43:47.779Z,3.47
2022-11-05T05:47:09.175Z,3.20
2022-11-05T05:50:30.422Z,3.27
2022-11-05T05:54:01.658Z,4.97
2022-11-05T05:57:24.874Z,3.40
2022-11-05T06:00:46.503Z,4.17
2022-11-05T06:04:08.123Z,3.43
2022-11-05T06:07:33.113Z,4.07
2022-11-05T06:10:59.520Z,3.70
2022-11-05T06:14:22.684Z,4.50
2022-11-05T06:17:44.576Z,4.27
2022-11-05T06:21:07.765Z,3.90
2022-11-05T06:24:32.053Z,3.90
2022-11-05T06:27:56.287Z,3.90
2022-11-05T06:31:27.015Z,4.03
2022-11-05T06:34:58.494Z,4.23
2022-11-05T06:38:20.667Z,4.93
2022-11-05T06:42:22.596Z,4.20
2022-11-05T06:46:04.014Z,4.13
2022-11-05T06:49:49.431Z,3.93
2022-11-05T06:53:23.426Z,4.37
2022-11-05T06:57:11.439Z,4.70
2022-11-05T07:00:34.829Z,4.40
2022-11-05T07:04:00.404Z,4.90
2022-11-05T07:07:23.581Z,5.13
2022-11-05T07:10:52.122Z,5.50
2022-11-05T07:14:20.306Z,5.10
2022-11-05T07:28:43.052Z,5.73
2022-11-05T07:36:21.245Z,5.87
2022-11-05T07:39:47.123Z,5.27
2022-11-05T07:43:20.943Z,5.70
2022-11-05T07:46:42.902Z,5.40
2022-11-05T08:01:10.200Z,6.70
2022-11-05T08:05:30.866Z,7.53
2022-11-05T08:09:48.957Z,6.23
2022-11-05T08:13:39.298Z,6.40
2022-11-05T08:17:11.595Z,7.30
2022-11-05T08:20:42.620Z,8.27
2022-11-05T08:29:58.712Z,6.80
2022-11-05T08:33:28.492Z,7.23
2022-11-05T08:37:01.965Z,7.43
2022-11-05T08:40:38.121Z,7.70
2022-11-05T08:54:59.605Z,5.97
2022-11-05T09:23:59.739Z,6.30
2022-11-05T09:27:59.880Z,6.80
2022-11-05T09:48:22.648Z,5.57
2022-11-05T10:34:24.709Z,5.10
2022-11-05T10:44:14.751Z,3.50
2022-11-05T11:11:44.973Z,3.30
2022-11-05T11:15:58.087Z,2.70
2022-11-05T11:26:06.482Z,2.60
2022-11-05T11:36:07.782Z,2.80
2022-11-05T11:53:05.139Z,1.65
2022-11-05T12:03:01.823Z,2.03
2022-11-05T12:06:46.313Z,1.88
2022-11-05T12:16:00.031Z,2.40
2022-11-05T12:20:20.988Z,1.70
2022-11-05T12:29:43.870Z,1.73
2022-11-05T12:33:31.103Z,1.33
2022-11-05T12:47:03.887Z,1.83
2022-11-05T12:51:08.698Z,1.10
2022-11-05T12:55:52.697Z,1.90
2022-11-05T13:04:41.069Z,1.50
2022-11-05T13:08:07.443Z,1.60
2022-11-05T13:11:59.423Z,1.60
2022-11-05T13:15:28.505Z,1.58
2022-11-05T13:18:54.371Z,1.58
2022-11-05T13:22:51.211Z,1.42
2022-11-05T13:26:25.994Z,1.67
2022-11-05T13:29:51.102Z,1.63
2022-11-05T13:33:15.951Z,1.52
2022-11-05T13:37:05.472Z,1.60
2022-11-05T13:40:41.671Z,1.75
2022-11-05T13:44:25.986Z,1.45
2022-11-05T13:48:03.327Z,1.40
2022-11-05T13:52:07.540Z,1.55
2022-11-05T13:55:54.103Z,1.55
2022-11-05T13:59:46.490Z,4.00
2022-11-05T14:03:17.097Z,4.28
2022-11-05T14:06:38.758Z,1.30
2022-11-05T14:10:03.012Z,1.90
2022-11-05T14:13:32.250Z,1.95
2022-11-05T14:16:56.201Z,2.10
2022-11-05T14:20:43.303Z,2.72
2022-11-05T14:24:26.874Z,2.05
2022-11-05T14:27:54.430Z,1.92
2022-11-05T14:32:07.222Z,1.85
2022-11-05T14:35:38.063Z,1.70
2022-11-05T14:39:13.321Z,2.35
2022-11-05T14:43:25.975Z,2.03
2022-11-05T14:46:56.057Z,2.00
2022-11-05T14:50:25.865Z,2.05
2022-11-05T14:53:48.315Z,2.15
2022-11-05T14:57:14.200Z,3.50
2022-11-05T15:00:45.532Z,4.10
2022-11-05T15:04:19.588Z,3.00
2022-11-05T15:07:40.954Z,3.22
2022-11-05T15:11:13.654Z,2.20
2022-11-05T15:14:42.306Z,3.00
2022-11-05T15:18:11.575Z,4.03
2022-11-05T15:21:39.152Z,2.10
2022-11-05T15:26:01.222Z,2.25
2022-11-05T15:29:46.672Z,2.33
2022-11-05T15:33:20.283Z,3.53
2022-11-05T15:40:44.870Z,2.40
2022-11-05T15:44:24.189Z,2.45
2022-11-05T15:47:46.942Z,2.30
2022-11-05T15:51:08.370Z,1.75
2022-11-05T15:54:31.611Z,2.17
2022-11-05T15:58:02.704Z,2.17
2022-11-05T16:01:29.057Z,2.00
2022-11-05T16:04:56.323Z,2.75
2022-11-05T16:08:27.788Z,2.20
2022-11-05T16:12:13.618Z,2.42
2022-11-05T16:15:35.464Z,2.27
2022-11-05T16:19:42.135Z,2.70
2022-11-05T16:23:05.173Z,2.70
2022-11-05T16:27:00.444Z,2.97
2022-11-05T16:30:20.112Z,2.70
2022-11-05T16:33:54.310Z,3.47
2022-11-05T16:37:24.817Z,4.00
2022-11-05T16:40:47.680Z,4.57
2022-11-05T16:44:10.421Z,4.47
2022-11-05T16:47:33.760Z,4.20
2022-11-05T16:50:55.716Z,3.70
2022-11-05T16:54:17.226Z,3.07
2022-11-05T16:57:47.361Z,3.07
2022-11-05T17:01:20.933Z,3.40
2022-11-05T17:04:43.553Z,3.17
2022-11-05T17:08:05.286Z,5.63
2022-11-05T17:11:31.003Z,16.57
2022-11-05T17:14:52.197Z,18.17
2022-11-05T17:18:25.294Z,6.00
2022-11-05T17:21:50.033Z,4.90
2022-11-05T17:25:11.739Z,5.67
2022-11-05T17:28:35.858Z,6.00
2022-11-05T17:31:57.361Z,5.10
2022-11-05T17:35:18.915Z,5.17
2022-11-05T17:38:47.529Z,5.37
2022-11-05T17:42:11.162Z,8.10
2022-11-05T17:45:33.446Z,8.40
2022-11-05T17:49:03.634Z,9.30
2022-11-05T17:52:50.333Z,8.73
2022-11-05T17:56:59.218Z,8.53
2022-11-05T18:00:26.806Z,7.60
2022-11-05T18:03:48.646Z,5.53
2022-11-05T18:07:10.517Z,4.67
2022-11-05T18:10:32.381Z,5.53
2022-11-05T18:13:54.112Z,7.13
2022-11-05T18:17:17.336Z,8.00
2022-11-05T18:20:39.708Z,8.30
2022-11-05T18:24:06.656Z,6.90
2022-11-05T18:27:28.481Z,6.80
2022-11-05T18:30:50.183Z,6.87
2022-11-05T18:34:27.259Z,7.03
2022-11-05T18:37:48.718Z,6.63
2022-11-05T18:41:10.066Z,7.03
2022-11-05T18:44:36.259Z,6.40
2022-11-05T18:48:01.670Z,7.37
2022-11-05T18:51:24.673Z,7.43
2022-11-05T18:54:46.123Z,7.27
2022-11-05T18:58:32.467Z,7.67
2022-11-05T19:01:55.981Z,7.70
2022-11-05T19:05:33.192Z,8.30
2022-11-05T19:09:13.105Z,8.80
2022-11-05T19:12:36.302Z,7.27
2022-11-05T19:16:09.410Z,6.20
2022-11-05T19:19:30.701Z,5.87
2022-11-05T19:27:45.236Z,5.60
2022-11-05T19:31:18.672Z,5.30
2022-11-05T19:34:40.348Z,7.33
2022-11-05T19:38:02.229Z,6.70
2022-11-05T19:41:27.902Z,8.67
2022-11-05T19:44:50.743Z,6.23
2022-11-05T19:48:17.849Z,7.97
2022-11-05T19:52:10.299Z,10.23
2022-11-05T19:56:17.151Z,8.37
2022-11-05T19:59:50.488Z,10.07
2022-11-05T20:03:14.004Z,9.63
2022-11-05T20:06:38.867Z,9.13
2022-11-05T20:10:00.517Z,13.70
2022-11-05T20:13:22.347Z,13.93
2022-11-05T20:16:58.454Z,13.87
2022-11-05T20:20:24.223Z,14.20
2022-11-05T20:23:48.439Z,14.50
2022-11-05T20:27:11.380Z,13.77
2022-11-05T20:30:39.799Z,13.50
2022-11-05T20:34:01.705Z,12.03
2022-11-05T20:38:05.016Z,13.13
2022-11-05T20:41:27.604Z,12.40
2022-11-05T20:44:56.080Z,11.30
2022-11-05T20:48:19.543Z,11.77
2022-11-05T20:51:41.570Z,11.13
2022-11-05T20:55:09.099Z,10.43
2022-11-05T20:58:38.254Z,10.07
2022-11-05T21:02:03.705Z,9.73
2022-11-05T21:05:25.290Z,9.77
2022-11-05T21:08:52.985Z,10.70
2022-11-05T21:12:20.406Z,10.03
2022-11-05T21:15:51.073Z,11.03
2022-11-05T21:19:12.737Z,11.83
2022-11-05T21:22:35.692Z,13.97
2022-11-05T21:25:59.910Z,13.40
2022-11-05T21:29:23.206Z,14.20
2022-11-05T21:32:44.463Z,14.80
2022-11-05T21:36:10.738Z,15.27
2022-11-05T21:39:35.120Z,12.67
2022-11-05T21:44:08.905Z,11.53
2022-11-05T21:47:32.237Z,10.43
2022-11-05T21:51:17.894Z,9.13
2022-11-05T21:54:57.138Z,8.70
2022-11-05T21:58:42.387Z,8.40
2022-11-05T22:02:09.949Z,9.40
2022-11-05T22:05:42.086Z,9.57
2022-11-05T22:09:13.431Z,9.60
2022-11-05T22:12:35.288Z,10.83
2022-11-05T22:15:57.963Z,10.17
2022-11-05T22:19:20.312Z,9.63
2022-11-05T22:22:44.440Z,9.83
2022-11-05T22:26:05.985Z,8.87
2022-11-05T22:29:28.434Z,10.13
2022-11-05T22:32:50.099Z,9.43
2022-11-05T22:36:11.819Z,9.50
2022-11-05T22:39:37.135Z,9.17
2022-11-05T22:43:03.747Z,8.60
2022-11-05T22:46:29.635Z,8.77
2022-11-05T22:49:51.200Z,8.27
2022-11-05T22:53:12.777Z,8.70
2022-11-05T22:56:38.256Z,8.30
2022-11-05T22:59:59.984Z,8.40
2022-11-05T23:03:30.201Z,7.23
2022-11-05T23:07:14.542Z,8.03
2022-11-05T23:10:56.423Z,8.93
2022-11-05T23:14:21.910Z,10.77
2022-11-05T23:18:00.479Z,10.57
2022-11-05T23:21:39.496Z,10.57
2022-11-05T23:25:01.340Z,10.30
2022-11-05T23:28:26.117Z,10.93
2022-11-05T23:32:07.036Z,10.53
2022-11-05T23:35:54.949Z,11.97
2022-11-05T23:39:16.762Z,12.30
2022-11-05T23:42:56.868Z,12.90
2022-11-05T23:46:35.820Z,12.87
2022-11-05T23:49:58.571Z,13.00
2022-11-05T23:53:21.522Z,12.80
2022-11-05T23:56:42.940Z,12.13
